createdAt,value
2023-02-11T00:01:28.616Z,61.51
2023-02-11T00:03:58.634Z,61.41
2023-02-11T00:06:28.880Z,60.73
2023-02-11T00:08:57.431Z,61.72
2023-02-11T00:11:30.409Z,61.87
2023-02-11T00:14:05.000Z,62.83
2023-02-11T00:16:33.427Z,61.97
2023-02-11T00:19:03.379Z,61.81
2023-02-11T00:21:31.490Z,62.92
2023-02-11T00:24:02.318Z,63.41
2023-02-11T00:26:35.614Z,63.36
2023-02-11T00:29:05.335Z,63.27
2023-02-11T00:31:34.560Z,62.59
2023-02-11T00:34:02.936Z,62.90
2023-02-11T00:36:31.655Z,62.97
2023-02-11T00:39:01.130Z,63.16
2023-02-11T00:41:29.940Z,62.39
2023-02-11T00:44:01.815Z,61.98
2023-02-11T00:46:30.112Z,62.08
2023-02-11T00:48:58.371Z,61.68
2023-02-11T00:51:28.739Z,62.26
2023-02-11T00:53:57.890Z,63.04
2023-02-11T00:56:26.124Z,62.85
2023-02-11T00:58:54.357Z,63.12
2023-02-11T01:01:23.256Z,63.07
2023-02-11T01:03:51.698Z,62.51
2023-02-11T01:06:19.971Z,61.81
2023-02-11T01:08:48.107Z,61.44
2023-02-11T01:11:19.496Z,61.76
2023-02-11T01:13:48.830Z,62.19
2023-02-11T01:16:18.541Z,62.22
2023-02-11T01:18:47.427Z,61.96
2023-02-11T01:21:16.325Z,61.71
2023-02-11T01:23:44.876Z,62.05
2023-02-11T01:26:13.903Z,61.77
2023-02-11T01:28:42.507Z,62.01
2023-02-11T01:31:11.066Z,62.26
2023-02-11T01:33:39.415Z,62.41
2023-02-11T01:36:08.641Z,62.36
2023-02-11T01:38:37.107Z,62.67
2023-02-11T01:41:08.393Z,62.44
2023-02-11T01:43:43.429Z,62.01
2023-02-11T01:46:28.452Z,62.02
2023-02-11T01:49:02.649Z,62.13
2023-02-11T01:51:40.194Z,62.82
2023-02-11T01:54:30.260Z,63.52
2023-02-11T01:57:19.868Z,63.76
2023-02-11T02:00:33.989Z,63.73
2023-02-11T02:03:12.456Z,63.56
2023-02-11T02:06:01.915Z,63.00
2023-02-11T02:08:39.287Z,63.26
2023-02-11T02:11:08.050Z,63.19
2023-02-11T02:13:38.713Z,62.52
2023-02-11T02:16:12.250Z,62.34
2023-02-11T02:19:05.029Z,62.97
2023-02-11T02:22:10.699Z,62.52
2023-02-11T02:24:41.800Z,62.22
2023-02-11T02:27:22.859Z,62.14
2023-02-11T02:30:03.296Z,62.05
2023-02-11T02:32:43.199Z,61.81
2023-02-11T02:35:20.773Z,62.38
2023-02-11T02:37:54.598Z,62.75
2023-02-11T02:40:58.110Z,62.33
2023-02-11T02:43:27.713Z,62.11
2023-02-11T02:45:56.374Z,61.79
2023-02-11T02:48:33.389Z,62.22
2023-02-11T02:51:29.475Z,62.11
2023-02-11T02:54:28.684Z,61.37
2023-02-11T02:57:21.893Z,61.49
2023-02-11T02:59:59.156Z,60.54
2023-02-11T03:02:35.526Z,60.92
2023-02-11T03:05:22.035Z,61.61
2023-02-11T03:08:08.508Z,60.94
2023-02-11T03:10:43.130Z,61.00
2023-02-11T03:13:12.869Z,61.71
2023-02-11T03:15:44.337Z,62.09
2023-02-11T03:18:17.401Z,62.53
2023-02-11T03:20:50.936Z,62.80
2023-02-11T03:23:37.894Z,62.77
2023-02-11T03:26:14.006Z,62.47
2023-02-11T03:29:37.904Z,62.70
2023-02-11T03:32:26.116Z,63.18
2023-02-11T03:35:24.539Z,62.61
2023-02-11T03:37:55.930Z,62.21
2023-02-11T03:40:29.080Z,63.02
2023-02-11T03:43:01.095Z,63.38
2023-02-11T03:45:30.438Z,63.11
2023-02-11T03:48:03.310Z,62.67
2023-02-11T03:50:35.217Z,61.92
2023-02-11T03:53:04.925Z,62.39
2023-02-11T03:55:37.088Z,62.19
2023-02-11T03:58:06.076Z,61.87
2023-02-11T04:00:41.189Z,61.46
2023-02-11T04:03:11.425Z,61.36
2023-02-11T04:05:40.597Z,61.72
2023-02-11T04:08:09.473Z,61.49
2023-02-11T04:10:40.258Z,61.64
2023-02-11T04:13:08.336Z,61.33
2023-02-11T04:15:36.649Z,61.44
2023-02-11T04:18:04.962Z,61.43
2023-02-11T04:20:33.165Z,61.84
2023-02-11T04:23:01.308Z,62.22
2023-02-11T04:25:29.548Z,62.38
2023-02-11T04:27:57.666Z,61.82
2023-02-11T04:30:25.954Z,61.98
2023-02-11T04:32:54.644Z,62.38
2023-02-11T04:35:22.871Z,62.66
2023-02-11T04:37:51.028Z,63.21
2023-02-11T04:40:19.269Z,63.27
2023-02-11T04:42:47.379Z,63.95
2023-02-11T04:45:15.554Z,64.01
2023-02-11T04:47:43.690Z,64.07
2023-02-11T04:50:11.841Z,64.49
2023-02-11T04:52:39.983Z,64.20
2023-02-11T04:55:08.624Z,64.35
2023-02-11T04:57:36.750Z,64.03
2023-02-11T05:00:06.522Z,64.65
2023-02-11T05:02:34.728Z,65.30
2023-02-11T05:05:03.560Z,64.14
2023-02-11T05:07:31.850Z,63.92
2023-02-11T05:09:59.981Z,64.28
2023-02-11T05:12:28.109Z,64.71
2023-02-11T05:14:56.217Z,64.91
2023-02-11T05:17:24.387Z,64.48
2023-02-11T05:19:52.530Z,64.51
2023-02-11T05:22:22.170Z,63.23
2023-02-11T05:24:50.428Z,63.07
2023-02-11T05:27:18.541Z,62.82
2023-02-11T05:29:46.617Z,63.19
2023-02-11T05:32:14.919Z,62.15
2023-02-11T05:34:43.109Z,61.76
2023-02-11T05:37:11.406Z,61.97
2023-02-11T05:39:39.754Z,62.40
2023-02-11T05:42:08.246Z,62.55
2023-02-11T05:44:36.556Z,63.03
2023-02-11T05:47:04.918Z,63.38
2023-02-11T05:49:33.241Z,63.55
2023-02-11T05:52:01.610Z,62.99
2023-02-11T05:54:29.852Z,62.89
2023-02-11T05:56:58.151Z,62.11
2023-02-11T05:59:26.555Z,60.98
2023-02-11T06:01:55.001Z,59.51
2023-02-11T06:04:23.322Z,58.94
2023-02-11T06:06:51.497Z,59.02
2023-02-11T06:09:19.709Z,59.55
2023-02-11T06:11:47.867Z,59.58
2023-02-11T06:14:15.949Z,59.36
2023-02-11T06:16:44.119Z,58.27
2023-02-11T06:19:12.877Z,56.70
2023-02-11T06:21:44.267Z,56.84
2023-02-11T06:24:12.912Z,56.72
2023-02-11T06:26:41.196Z,55.51
2023-02-11T06:29:09.711Z,54.19
2023-02-11T06:31:39.296Z,53.65
2023-02-11T06:34:09.502Z,52.86
2023-02-11T06:36:41.012Z,51.98
2023-02-11T06:39:10.572Z,50.75
2023-02-11T06:41:38.763Z,50.11
2023-02-11T06:44:07.576Z,49.36
2023-02-11T06:46:35.991Z,47.96
2023-02-11T06:49:04.232Z,46.63
2023-02-11T06:51:32.362Z,44.76
2023-02-11T06:54:00.464Z,44.84
2023-02-11T06:56:28.738Z,45.28
2023-02-11T06:58:57.351Z,45.57
2023-02-11T07:01:27.090Z,45.51
2023-02-11T07:03:55.264Z,43.59
2023-02-11T07:06:28.089Z,42.46
2023-02-11T07:08:56.704Z,41.27
2023-02-11T07:11:28.378Z,40.51
2023-02-11T07:14:02.178Z,40.41
2023-02-11T07:16:32.436Z,40.64
2023-02-11T07:19:01.300Z,40.11
2023-02-11T07:21:29.603Z,39.45
2023-02-11T07:23:57.827Z,38.41
2023-02-11T07:26:26.135Z,38.40
2023-02-11T07:28:54.457Z,37.51
2023-02-11T07:31:27.696Z,36.88
2023-02-11T07:33:58.280Z,35.59
2023-02-11T07:36:28.012Z,36.01
2023-02-11T07:38:56.544Z,35.59
2023-02-11T07:41:27.446Z,35.78
2023-02-11T07:43:55.904Z,34.18
2023-02-11T07:46:27.178Z,34.55
2023-02-11T07:48:55.821Z,34.04
2023-02-11T07:51:29.530Z,33.77
2023-02-11T07:53:59.739Z,33.19
2023-02-11T07:56:29.112Z,34.23
2023-02-11T07:59:01.165Z,34.09
2023-02-11T08:01:30.871Z,33.77
2023-02-11T08:04:00.931Z,33.09
2023-02-11T08:06:31.848Z,32.97
2023-02-11T08:09:07.109Z,32.11
2023-02-11T08:11:35.593Z,29.46
2023-02-11T08:14:03.741Z,26.74
2023-02-11T08:16:34.555Z,26.88
2023-02-11T08:19:06.959Z,26.37
2023-02-11T08:21:35.394Z,23.92
2023-02-11T08:24:03.875Z,24.48
2023-02-11T08:26:35.039Z,25.28
2023-02-11T08:29:08.661Z,24.61
2023-02-11T08:31:40.103Z,24.47
2023-02-11T08:34:10.198Z,23.50
2023-02-11T08:36:40.193Z,23.32
2023-02-11T08:39:19.517Z,23.99
2023-02-11T08:41:52.395Z,23.47
2023-02-11T08:44:21.774Z,23.47
2023-02-11T08:46:51.165Z,23.36
2023-02-11T08:49:19.873Z,22.94
2023-02-11T08:51:48.517Z,22.72
2023-02-11T08:54:17.110Z,22.54
2023-02-11T08:56:45.712Z,22.54
2023-02-11T08:59:15.564Z,22.41
2023-02-11T09:01:44.548Z,22.94
2023-02-11T09:04:13.187Z,22.66
2023-02-11T09:06:41.855Z,22.74
2023-02-11T09:09:15.190Z,23.94
2023-02-11T09:11:44.981Z,24.44
2023-02-11T09:14:19.998Z,25.30
2023-02-11T09:16:49.175Z,25.91
2023-02-11T09:19:18.656Z,26.40
2023-02-11T09:21:47.288Z,26.25
2023-02-11T09:24:15.806Z,26.78
2023-02-11T09:26:44.231Z,26.10
2023-02-11T09:29:12.587Z,25.26
2023-02-11T09:31:40.866Z,24.07
2023-02-11T09:34:09.618Z,23.46
2023-02-11T09:36:40.373Z,23.53
2023-02-11T09:39:17.736Z,24.37
2023-02-11T09:41:59.895Z,25.16
2023-02-11T09:44:31.981Z,26.20
2023-02-11T09:47:03.572Z,25.61
2023-02-11T09:49:47.126Z,25.21
2023-02-11T09:52:30.207Z,25.38
2023-02-11T09:55:05.005Z,25.05
2023-02-11T09:57:36.030Z,23.71
2023-02-11T10:00:19.703Z,23.27
2023-02-11T10:03:29.767Z,23.20
2023-02-11T10:06:04.045Z,22.92
2023-02-11T10:09:02.796Z,22.00
2023-02-11T10:11:58.262Z,20.90
2023-02-11T10:14:26.542Z,19.90
2023-02-11T10:17:26.055Z,19.71
2023-02-11T10:20:11.697Z,18.87
2023-02-11T10:22:39.676Z,18.19
2023-02-11T10:25:27.919Z,18.08
2023-02-11T10:27:59.708Z,18.07
2023-02-11T10:30:39.031Z,17.40
2023-02-11T10:33:17.601Z,16.97
2023-02-11T10:35:46.224Z,17.29
2023-02-11T10:38:14.597Z,19.18
2023-02-11T10:40:43.240Z,19.75
2023-02-11T10:43:14.265Z,20.60
2023-02-11T10:45:50.012Z,21.78
2023-02-11T10:48:51.713Z,22.94
2023-02-11T10:51:25.752Z,23.93
2023-02-11T10:54:13.816Z,24.75
2023-02-11T10:56:50.601Z,25.96
2023-02-11T10:59:33.289Z,27.08
2023-02-11T11:02:06.112Z,27.45
2023-02-11T11:04:39.770Z,28.15
2023-02-11T11:07:12.928Z,28.44
2023-02-11T11:10:06.572Z,29.00
2023-02-11T11:12:48.837Z,29.67
2023-02-11T11:15:21.900Z,31.44
2023-02-11T11:17:51.596Z,32.22
2023-02-11T11:20:33.668Z,33.11
2023-02-11T11:23:20.479Z,33.55
2023-02-11T11:26:18.343Z,33.72
2023-02-11T11:28:49.539Z,35.02
2023-02-11T11:31:24.734Z,34.53
2023-02-11T11:33:55.835Z,34.43
2023-02-11T11:36:35.128Z,33.17
2023-02-11T11:39:25.742Z,32.16
2023-02-11T11:42:05.974Z,30.84
2023-02-11T11:44:36.295Z,30.06
2023-02-11T11:47:16.544Z,29.81
2023-02-11T11:49:56.784Z,29.30
2023-02-11T11:52:40.265Z,28.92
2023-02-11T11:55:19.913Z,28.11
2023-02-11T11:57:48.961Z,29.02
2023-02-11T12:00:21.238Z,30.43
2023-02-11T12:02:52.146Z,31.64
2023-02-11T12:05:37.751Z,32.46
2023-02-11T12:08:31.405Z,32.59
2023-02-11T12:11:14.764Z,32.47
2023-02-11T12:13:58.100Z,32.92
2023-02-11T12:17:01.593Z,33.49
2023-02-11T12:20:14.343Z,34.32
2023-02-11T12:22:48.847Z,34.95
2023-02-11T12:25:28.096Z,34.86
2023-02-11T12:28:15.483Z,35.26
2023-02-11T12:31:11.351Z,35.91
2023-02-11T12:34:01.029Z,36.20
2023-02-11T12:36:54.506Z,36.20
2023-02-11T12:39:22.590Z,36.02
2023-02-11T12:42:54.862Z,35.82
2023-02-11T12:45:29.692Z,36.46
2023-02-11T12:48:03.907Z,36.51
2023-02-11T12:50:38.990Z,37.63
2023-02-11T12:53:32.449Z,37.96
2023-02-11T12:56:16.731Z,38.40
2023-02-11T12:58:47.794Z,39.16
2023-02-11T13:01:34.444Z,39.15
2023-02-11T13:04:16.606Z,40.05
2023-02-11T13:06:57.716Z,40.57
2023-02-11T13:09:32.310Z,41.25
2023-02-11T13:12:23.765Z,41.35
2023-02-11T13:14:57.005Z,41.57
2023-02-11T13:17:34.569Z,41.61
2023-02-11T13:20:36.995Z,42.59
2023-02-11T13:23:16.670Z,43.10
2023-02-11T13:25:58.345Z,43.15
2023-02-11T13:28:36.714Z,42.94
2023-02-11T13:31:07.947Z,43.59
2023-02-11T13:33:43.351Z,43.68
2023-02-11T13:36:13.360Z,43.36
2023-02-11T13:38:51.442Z,43.40
2023-02-11T13:41:27.481Z,43.84
2023-02-11T13:44:04.998Z,44.08
2023-02-11T13:47:02.563Z,44.47
2023-02-11T13:49:33.423Z,44.46
2023-02-11T13:52:05.635Z,44.58
2023-02-11T13:54:38.258Z,44.39
2023-02-11T13:57:31.240Z,44.92
2023-02-11T14:00:02.512Z,44.79
2023-02-11T14:02:57.086Z,45.56
2023-02-11T14:05:52.017Z,45.88
2023-02-11T14:08:41.931Z,45.55
2023-02-11T14:11:32.834Z,45.80
2023-02-11T14:14:24.074Z,46.32
2023-02-11T14:17:00.985Z,47.06
2023-02-11T14:19:46.079Z,46.88
2023-02-11T14:22:18.731Z,46.96
2023-02-11T14:24:54.102Z,47.06
2023-02-11T14:27:35.679Z,47.35
2023-02-11T14:30:40.704Z,47.76
2023-02-11T14:33:20.575Z,48.17
2023-02-11T14:35:54.749Z,48.40
2023-02-11T14:38:31.708Z,48.37
2023-02-11T14:41:29.648Z,48.72
2023-02-11T14:44:02.092Z,49.15
2023-02-11T14:46:33.046Z,49.11
2023-02-11T14:49:05.440Z,49.05
2023-02-11T14:51:39.888Z,49.61
2023-02-11T14:54:19.212Z,49.90
2023-02-11T14:56:47.392Z,49.59
2023-02-11T14:59:22.136Z,49.91
2023-02-11T15:01:54.415Z,50.17
2023-02-11T15:04:27.334Z,50.49
2023-02-11T15:06:57.622Z,50.77
2023-02-11T15:09:42.481Z,50.65
2023-02-11T15:12:26.463Z,51.05
2023-02-11T15:15:00.380Z,50.84
2023-02-11T15:17:32.237Z,50.95
2023-02-11T15:20:02.653Z,51.28
2023-02-11T15:22:36.560Z,51.95
2023-02-11T15:25:08.375Z,51.92
2023-02-11T15:27:45.710Z,52.36
2023-02-11T15:30:23.134Z,53.17
2023-02-11T15:33:00.118Z,52.66
2023-02-11T15:35:42.891Z,52.41
2023-02-11T15:38:13.525Z,52.91
2023-02-11T15:40:58.620Z,52.67
2023-02-11T15:43:48.450Z,53.17
2023-02-11T15:46:24.218Z,54.01
2023-02-11T15:48:54.378Z,54.14
2023-02-11T15:51:53.587Z,54.08
2023-02-11T15:54:26.904Z,55.56
2023-02-11T15:57:02.734Z,55.69
2023-02-11T15:59:38.443Z,55.95
2023-02-11T16:02:18.829Z,55.70
2023-02-11T16:04:56.392Z,55.59
2023-02-11T16:07:49.885Z,55.52
2023-02-11T16:10:27.274Z,55.96
2023-02-11T16:13:03.178Z,55.94
2023-02-11T16:15:34.110Z,56.59
2023-02-11T16:18:05.860Z,56.94
2023-02-11T16:20:34.361Z,57.50
2023-02-11T16:23:04.569Z,58.22
2023-02-11T16:25:35.503Z,58.86
2023-02-11T16:28:03.928Z,59.68
2023-02-11T16:30:40.681Z,59.68
2023-02-11T16:33:11.576Z,60.23
2023-02-11T16:35:40.629Z,59.64
2023-02-11T16:38:08.789Z,60.01
2023-02-11T16:40:37.409Z,60.29
2023-02-11T16:43:05.561Z,60.76
2023-02-11T16:45:38.926Z,60.63
2023-02-11T16:48:09.424Z,60.57
2023-02-11T16:50:38.039Z,61.01
2023-02-11T16:53:06.522Z,60.64
2023-02-11T16:55:35.264Z,60.92
2023-02-11T16:58:03.400Z,60.67
2023-02-11T17:00:31.503Z,60.77
2023-02-11T17:02:59.859Z,61.05
2023-02-11T17:05:28.139Z,61.56
2023-02-11T17:07:56.280Z,62.02
2023-02-11T17:10:24.657Z,62.10
2023-02-11T17:12:53.554Z,62.84
2023-02-11T17:15:21.759Z,63.24
2023-02-11T17:17:49.860Z,63.31
2023-02-11T17:20:18.333Z,63.43
2023-02-11T17:22:46.625Z,63.78
2023-02-11T17:25:14.923Z,63.21
2023-02-11T17:27:43.183Z,63.17
2023-02-11T17:30:13.423Z,62.21
2023-02-11T17:32:41.703Z,62.16
2023-02-11T17:35:09.993Z,62.73
2023-02-11T17:37:38.335Z,63.12
2023-02-11T17:40:08.225Z,62.77
2023-02-11T17:42:36.324Z,62.65
2023-02-11T17:45:04.863Z,62.82
2023-02-11T17:47:33.144Z,62.74
2023-02-11T17:50:03.120Z,62.74
2023-02-11T17:52:31.409Z,62.85
2023-02-11T17:54:59.561Z,62.89
2023-02-11T17:57:27.751Z,63.13
2023-02-11T17:59:56.004Z,63.35
2023-02-11T18:02:24.316Z,63.52
2023-02-11T18:04:53.454Z,63.78
2023-02-11T18:07:21.726Z,63.65
2023-02-11T18:09:49.925Z,64.14
2023-02-11T18:12:25.319Z,63.68
2023-02-11T18:14:57.885Z,63.30
2023-02-11T18:17:26.434Z,63.30
2023-02-11T18:19:57.767Z,63.59
2023-02-11T18:22:26.099Z,63.20
2023-02-11T18:24:55.219Z,63.09
2023-02-11T18:27:23.392Z,63.16
2023-02-11T18:29:51.584Z,63.24
2023-02-11T18:32:19.681Z,63.39
2023-02-11T18:34:47.848Z,63.58
2023-02-11T18:37:16.452Z,63.70
2023-02-11T18:39:44.551Z,63.49
2023-02-11T18:42:12.705Z,63.39
2023-02-11T18:44:40.938Z,63.57
2023-02-11T18:47:09.189Z,64.23
2023-02-11T18:49:37.409Z,64.87
2023-02-11T18:52:05.682Z,64.66
2023-02-11T18:54:33.764Z,64.70
2023-02-11T18:57:01.882Z,65.03
2023-02-11T18:59:30.241Z,65.11
2023-02-11T19:01:58.402Z,65.52
2023-02-11T19:04:26.596Z,65.35
2023-02-11T19:06:54.722Z,65.27
2023-02-11T19:09:22.768Z,65.38
2023-02-11T19:11:51.009Z,65.20
2023-02-11T19:14:25.203Z,65.07
2023-02-11T19:16:55.948Z,64.79
2023-02-11T19:19:28.080Z,65.24
2023-02-11T19:21:57.525Z,65.33
2023-02-11T19:24:27.366Z,65.24
2023-02-11T19:26:58.646Z,64.60
2023-02-11T19:29:28.093Z,64.80
2023-02-11T19:31:56.262Z,64.96
2023-02-11T19:34:24.445Z,64.94
2023-02-11T19:36:54.321Z,64.99
2023-02-11T19:39:24.855Z,64.58
2023-02-11T19:41:53.475Z,64.26
2023-02-11T19:44:21.745Z,64.04
2023-02-11T19:46:52.835Z,63.96
2023-02-11T19:49:24.601Z,64.11
2023-02-11T19:51:55.434Z,64.36
2023-02-11T19:54:26.561Z,65.11
2023-02-11T19:56:55.350Z,65.76
2023-02-11T19:59:23.564Z,65.62
2023-02-11T20:01:53.325Z,65.93
2023-02-11T20:04:21.695Z,65.33
2023-02-11T20:06:49.986Z,65.50
2023-02-11T20:09:18.272Z,65.53
2023-02-11T20:11:46.572Z,65.93
2023-02-11T20:14:15.573Z,66.18
2023-02-11T20:16:49.312Z,66.66
2023-02-11T20:19:21.661Z,66.66
2023-02-11T20:21:53.146Z,66.51
2023-02-11T20:24:22.330Z,67.20
2023-02-11T20:26:55.498Z,67.20
2023-02-11T20:29:24.820Z,67.28
2023-02-11T20:31:54.021Z,66.96
2023-02-11T20:34:22.839Z,66.45
2023-02-11T20:36:54.957Z,66.37
2023-02-11T20:39:25.780Z,66.29
2023-02-11T20:41:54.666Z,65.92
2023-02-11T20:44:23.595Z,66.13
2023-02-11T20:46:53.926Z,66.11
2023-02-11T20:49:24.532Z,65.75
2023-02-11T20:51:54.051Z,65.51
2023-02-11T20:54:24.167Z,64.97
2023-02-11T20:56:54.030Z,64.75
2023-02-11T20:59:22.818Z,64.40
2023-02-11T21:01:55.578Z,63.75
2023-02-11T21:04:26.800Z,63.72
2023-02-11T21:06:58.632Z,63.47
2023-02-11T21:09:31.307Z,63.59
2023-02-11T21:11:59.947Z,63.55
2023-02-11T21:14:28.559Z,63.36
2023-02-11T21:16:57.681Z,63.74
2023-02-11T21:19:26.313Z,63.54
2023-02-11T21:21:55.388Z,63.47
2023-02-11T21:24:24.008Z,63.55
2023-02-11T21:26:52.121Z,63.44
2023-02-11T21:29:20.569Z,63.49
2023-02-11T21:31:48.933Z,63.25
2023-02-11T21:34:17.281Z,63.19
2023-02-11T21:36:45.496Z,63.39
2023-02-11T21:39:17.531Z,63.22
2023-02-11T21:41:45.756Z,63.23
2023-02-11T21:44:13.899Z,63.09
2023-02-11T21:46:42.102Z,63.23
2023-02-11T21:49:10.466Z,63.57
2023-02-11T21:51:39.612Z,63.63
2023-02-11T21:54:07.733Z,63.42
2023-02-11T21:56:36.708Z,63.77
2023-02-11T21:59:04.947Z,63.55
2023-02-11T22:01:35.460Z,63.53
2023-02-11T22:04:04.286Z,62.84
2023-02-11T22:06:34.900Z,62.43
2023-02-11T22:09:06.944Z,61.65
2023-02-11T22:11:35.611Z,61.27
2023-02-11T22:14:03.956Z,61.16
2023-02-11T22:16:32.625Z,60.99
2023-02-11T22:19:02.583Z,61.04
2023-02-11T22:21:31.075Z,61.03
2023-02-11T22:23:59.365Z,61.24
2023-02-11T22:26:28.414Z,61.25
2023-02-11T22:28:57.200Z,61.18
2023-02-11T22:31:29.223Z,61.16
2023-02-11T22:33:59.057Z,61.46
2023-02-11T22:36:30.792Z,61.34
2023-02-11T22:39:04.948Z,61.39
2023-02-11T22:41:33.378Z,61.29
2023-02-11T22:44:01.492Z,61.33
2023-02-11T22:46:29.878Z,61.32
2023-02-11T22:48:58.145Z,61.47
2023-02-11T22:51:29.038Z,62.02
2023-02-11T22:54:06.056Z,62.65
2023-02-11T22:56:35.362Z,63.28
2023-02-11T22:59:06.709Z,63.07
2023-02-11T23:01:35.558Z,63.21
2023-02-11T23:04:06.511Z,63.05
2023-02-11T23:06:35.463Z,62.73
2023-02-11T23:09:05.353Z,62.73
2023-02-11T23:11:33.627Z,62.95
2023-02-11T23:14:03.322Z,63.28
2023-02-11T23:16:33.644Z,63.43
2023-02-11T23:19:06.277Z,63.19
2023-02-11T23:21:37.263Z,63.06
2023-02-11T23:24:08.943Z,63.37
2023-02-11T23:26:39.853Z,63.92
2023-02-11T23:29:08.826Z,64.18
2023-02-11T23:31:40.557Z,64.60
2023-02-11T23:34:09.421Z,64.86
2023-02-11T23:36:38.133Z,64.49
2023-02-11T23:39:06.407Z,63.77
2023-02-11T23:41:34.725Z,63.73
2023-02-11T23:44:03.013Z,63.98
2023-02-11T23:46:31.387Z,64.20
2023-02-11T23:48:59.692Z,64.45
2023-02-11T23:51:27.887Z,64.85
2023-02-11T23:53:57.224Z,65.32
2023-02-11T23:56:28.203Z,65.82
2023-02-11T23:58:57.887Z,66.13
